TAF EPSY 160830Z 1609/1618 26010KT 9999 SCT025 PROB40 TEMPO 1609/1615 26015G25KT -SHRA BKN020TCU=